sensor_id;sensor_type;location;lat;lon;timestamp;P1;durP1;ratioP1;P2;durP2;ratioP2
72286;SDS011;60221;45.696;16.076;2022-10-26T00:01:03;12.45;;;6.53;;
72286;SDS011;60221;45.696;16.076;2022-10-26T00:03:41;13.72;;;6.55;;
72286;SDS011;60221;45.696;16.076;2022-10-26T00:06:14;13.20;;;5.55;;
72286;SDS011;60221;45.696;16.076;2022-10-26T00:08:46;11.18;;;5.53;;
72286;SDS011;60221;45.696;16.076;2022-10-26T00:11:13;11.20;;;5.63;;
72286;SDS011;60221;45.696;16.076;2022-10-26T00:13:40;13.35;;;5.95;;
72286;SDS011;60221;45.696;16.076;2022-10-26T00:16:08;13.90;;;6.15;;
72286;SDS011;60221;45.696;16.076;2022-10-26T00:18:38;11.00;;;4.97;;
72286;SDS011;60221;45.696;16.076;2022-10-26T00:21:06;12.50;;;5.85;;
72286;SDS011;60221;45.696;16.076;2022-10-26T00:23:34;12.60;;;5.50;;
72286;SDS011;60221;45.696;16.076;2022-10-26T00:26:01;11.40;;;4.75;;
72286;SDS011;60221;45.696;16.076;2022-10-26T00:28:28;9.80;;;5.37;;
72286;SDS011;60221;45.696;16.076;2022-10-26T00:30:59;14.23;;;6.30;;
72286;SDS011;60221;45.696;16.076;2022-10-26T00:33:28;13.03;;;5.53;;
72286;SDS011;60221;45.696;16.076;2022-10-26T00:35:55;13.03;;;5.80;;
72286;SDS011;60221;45.696;16.076;2022-10-26T00:38:21;12.58;;;5.90;;
72286;SDS011;60221;45.696;16.076;2022-10-26T00:40:47;10.72;;;4.83;;
72286;SDS011;60221;45.696;16.076;2022-10-26T00:43:14;14.98;;;6.37;;
72286;SDS011;60221;45.696;16.076;2022-10-26T00:45:48;13.45;;;5.33;;
72286;SDS011;60221;45.696;16.076;2022-10-26T00:48:23;12.13;;;4.80;;
72286;SDS011;60221;45.696;16.076;2022-10-26T00:50:59;10.90;;;5.87;;
72286;SDS011;60221;45.696;16.076;2022-10-26T00:53:29;13.65;;;6.05;;
72286;SDS011;60221;45.696;16.076;2022-10-26T00:55:58;13.68;;;5.17;;
72286;SDS011;60221;45.696;16.076;2022-10-26T00:58:26;11.75;;;5.75;;
72286;SDS011;60221;45.696;16.076;2022-10-26T01:00:53;17.27;;;6.90;;
72286;SDS011;60221;45.696;16.076;2022-10-26T01:03:20;14.85;;;5.83;;
72286;SDS011;60221;45.696;16.076;2022-10-26T01:05:49;14.85;;;5.87;;
72286;SDS011;60221;45.696;16.076;2022-10-26T01:08:17;12.80;;;5.50;;
72286;SDS011;60221;45.696;16.076;2022-10-26T01:10:44;11.60;;;4.62;;
72286;SDS011;60221;45.696;16.076;2022-10-26T01:13:11;10.03;;;4.43;;
72286;SDS011;60221;45.696;16.076;2022-10-26T01:15:50;9.93;;;4.35;;
72286;SDS011;60221;45.696;16.076;2022-10-26T01:18:49;9.48;;;4.00;;
72286;SDS011;60221;45.696;16.076;2022-10-26T01:21:38;7.30;;;2.98;;
72286;SDS011;60221;45.696;16.076;2022-10-26T01:33:08;9.20;;;3.62;;
72286;SDS011;60221;45.696;16.076;2022-10-26T01:36:26;10.95;;;4.28;;
72286;SDS011;60221;45.696;16.076;2022-10-26T01:41:49;9.03;;;3.50;;
72286;SDS011;60221;45.696;16.076;2022-10-26T01:44:20;7.67;;;3.02;;
72286;SDS011;60221;45.696;16.076;2022-10-26T01:47:04;9.13;;;2.75;;
72286;SDS011;60221;45.696;16.076;2022-10-26T01:49:35;7.40;;;2.30;;
72286;SDS011;60221;45.696;16.076;2022-10-26T01:52:08;8.20;;;2.50;;
72286;SDS011;60221;45.696;16.076;2022-10-26T01:54:35;8.53;;;2.80;;
72286;SDS011;60221;45.696;16.076;2022-10-26T01:57:03;9.40;;;2.20;;
72286;SDS011;60221;45.696;16.076;2022-10-26T01:59:41;8.28;;;2.77;;
72286;SDS011;60221;45.696;16.076;2022-10-26T02:16:04;5.95;;;1.67;;
72286;SDS011;60221;45.696;16.076;2022-10-26T02:21:22;4.90;;;1.00;;
72286;SDS011;60221;45.696;16.076;2022-10-26T02:23:48;7.90;;;1.00;;
72286;SDS011;60221;45.696;16.076;2022-10-26T02:26:18;9.05;;;1.20;;
72286;SDS011;60221;45.696;16.076;2022-10-26T02:28:49;5.08;;;0.82;;
72286;SDS011;60221;45.696;16.076;2022-10-26T02:31:19;5.92;;;0.93;;
72286;SDS011;60221;45.696;16.076;2022-10-26T02:33:48;6.37;;;1.03;;
72286;SDS011;60221;45.696;16.076;2022-10-26T02:36:21;5.45;;;0.93;;
72286;SDS011;60221;45.696;16.076;2022-10-26T02:38:50;4.30;;;1.37;;
72286;SDS011;60221;45.696;16.076;2022-10-26T02:41:18;7.35;;;1.10;;
72286;SDS011;60221;45.696;16.076;2022-10-26T02:43:52;10.23;;;1.60;;
72286;SDS011;60221;45.696;16.076;2022-10-26T02:46:22;10.00;;;1.80;;
72286;SDS011;60221;45.696;16.076;2022-10-26T02:48:53;9.75;;;1.57;;
72286;SDS011;60221;45.696;16.076;2022-10-26T02:54:12;8.28;;;1.70;;
72286;SDS011;60221;45.696;16.076;2022-10-26T02:56:56;7.03;;;1.10;;
72286;SDS011;60221;45.696;16.076;2022-10-26T02:59:38;8.10;;;0.90;;
72286;SDS011;60221;45.696;16.076;2022-10-26T03:02:08;6.42;;;1.35;;
72286;SDS011;60221;45.696;16.076;2022-10-26T03:04:36;8.35;;;1.22;;
72286;SDS011;60221;45.696;16.076;2022-10-26T03:07:02;4.95;;;1.10;;
72286;SDS011;60221;45.696;16.076;2022-10-26T03:09:28;9.33;;;1.03;;
72286;SDS011;60221;45.696;16.076;2022-10-26T03:11:54;8.10;;;0.95;;
72286;SDS011;60221;45.696;16.076;2022-10-26T03:14:20;4.30;;;1.32;;
72286;SDS011;60221;45.696;16.076;2022-10-26T03:16:47;4.97;;;1.47;;
72286;SDS011;60221;45.696;16.076;2022-10-26T03:19:13;3.95;;;0.90;;
72286;SDS011;60221;45.696;16.076;2022-10-26T03:21:39;3.97;;;1.00;;
72286;SDS011;60221;45.696;16.076;2022-10-26T03:24:07;3.27;;;0.78;;
72286;SDS011;60221;45.696;16.076;2022-10-26T03:26:34;4.55;;;0.80;;
72286;SDS011;60221;45.696;16.076;2022-10-26T03:29:01;5.65;;;1.30;;
72286;SDS011;60221;45.696;16.076;2022-10-26T03:31:27;4.22;;;1.02;;
72286;SDS011;60221;45.696;16.076;2022-10-26T03:33:53;5.20;;;1.00;;
72286;SDS011;60221;45.696;16.076;2022-10-26T03:36:19;4.50;;;1.30;;
72286;SDS011;60221;45.696;16.076;2022-10-26T03:38:45;22.22;;;5.17;;
72286;SDS011;60221;45.696;16.076;2022-10-26T03:41:11;9.53;;;2.03;;
72286;SDS011;60221;45.696;16.076;2022-10-26T03:43:37;7.05;;;1.55;;
72286;SDS011;60221;45.696;16.076;2022-10-26T03:46:03;4.62;;;0.80;;
72286;SDS011;60221;45.696;16.076;2022-10-26T03:48:29;4.35;;;1.35;;
72286;SDS011;60221;45.696;16.076;2022-10-26T03:50:58;11.77;;;1.60;;
72286;SDS011;60221;45.696;16.076;2022-10-26T03:53:25;4.95;;;1.62;;
72286;SDS011;60221;45.696;16.076;2022-10-26T03:55:52;4.80;;;1.50;;
72286;SDS011;60221;45.696;16.076;2022-10-26T03:58:18;4.78;;;1.75;;
72286;SDS011;60221;45.696;16.076;2022-10-26T04:00:44;6.65;;;1.35;;
72286;SDS011;60221;45.696;16.076;2022-10-26T04:03:10;7.83;;;1.47;;
72286;SDS011;60221;45.696;16.076;2022-10-26T04:05:36;5.55;;;1.87;;
72286;SDS011;60221;45.696;16.076;2022-10-26T04:08:02;7.85;;;1.30;;
72286;SDS011;60221;45.696;16.076;2022-10-26T04:10:28;5.15;;;1.70;;
72286;SDS011;60221;45.696;16.076;2022-10-26T04:12:55;5.22;;;1.37;;
72286;SDS011;60221;45.696;16.076;2022-10-26T04:15:23;6.70;;;1.57;;
72286;SDS011;60221;45.696;16.076;2022-10-26T04:17:56;8.50;;;3.42;;
72286;SDS011;60221;45.696;16.076;2022-10-26T04:20:25;8.28;;;2.80;;
72286;SDS011;60221;45.696;16.076;2022-10-26T04:23:01;10.38;;;3.15;;
72286;SDS011;60221;45.696;16.076;2022-10-26T04:25:31;6.20;;;2.47;;
72286;SDS011;60221;45.696;16.076;2022-10-26T04:27:59;13.20;;;3.00;;
72286;SDS011;60221;45.696;16.076;2022-10-26T04:30:27;7.17;;;2.50;;
72286;SDS011;60221;45.696;16.076;2022-10-26T04:32:54;8.15;;;2.37;;
72286;SDS011;60221;45.696;16.076;2022-10-26T04:35:21;65.47;;;22.17;;
72286;SDS011;60221;45.696;16.076;2022-10-26T04:37:48;51.37;;;24.67;;
72286;SDS011;60221;45.696;16.076;2022-10-26T04:40:14;25.30;;;12.87;;
72286;SDS011;60221;45.696;16.076;2022-10-26T04:42:41;14.20;;;7.45;;
72286;SDS011;60221;45.696;16.076;2022-10-26T04:45:10;12.85;;;5.00;;
72286;SDS011;60221;45.696;16.076;2022-10-26T04:47:38;8.60;;;3.65;;
72286;SDS011;60221;45.696;16.076;2022-10-26T04:50:06;9.95;;;4.40;;
72286;SDS011;60221;45.696;16.076;2022-10-26T04:52:36;12.37;;;4.03;;
72286;SDS011;60221;45.696;16.076;2022-10-26T04:55:03;10.32;;;3.87;;
72286;SDS011;60221;45.696;16.076;2022-10-26T04:57:32;6.58;;;1.70;;
72286;SDS011;60221;45.696;16.076;2022-10-26T05:00:00;5.87;;;1.62;;
72286;SDS011;60221;45.696;16.076;2022-10-26T05:02:29;5.37;;;1.90;;
72286;SDS011;60221;45.696;16.076;2022-10-26T05:04:55;4.77;;;1.70;;
72286;SDS011;60221;45.696;16.076;2022-10-26T05:07:21;7.28;;;2.72;;
72286;SDS011;60221;45.696;16.076;2022-10-26T05:09:48;6.40;;;2.35;;
72286;SDS011;60221;45.696;16.076;2022-10-26T05:12:14;4.43;;;1.00;;
72286;SDS011;60221;45.696;16.076;2022-10-26T05:14:40;5.35;;;1.05;;
72286;SDS011;60221;45.696;16.076;2022-10-26T05:17:06;3.52;;;1.30;;
72286;SDS011;60221;45.696;16.076;2022-10-26T05:19:32;4.03;;;1.75;;
72286;SDS011;60221;45.696;16.076;2022-10-26T05:21:58;3.27;;;0.90;;
72286;SDS011;60221;45.696;16.076;2022-10-26T05:24:24;4.62;;;0.93;;
72286;SDS011;60221;45.696;16.076;2022-10-26T05:26:50;4.80;;;1.17;;
72286;SDS011;60221;45.696;16.076;2022-10-26T05:29:16;5.17;;;1.60;;
72286;SDS011;60221;45.696;16.076;2022-10-26T05:31:42;5.45;;;2.22;;
72286;SDS011;60221;45.696;16.076;2022-10-26T05:34:08;6.50;;;2.20;;
72286;SDS011;60221;45.696;16.076;2022-10-26T05:36:34;6.53;;;2.22;;
72286;SDS011;60221;45.696;16.076;2022-10-26T05:39:01;6.50;;;1.37;;
72286;SDS011;60221;45.696;16.076;2022-10-26T05:41:27;5.15;;;1.02;;
72286;SDS011;60221;45.696;16.076;2022-10-26T05:43:53;4.35;;;1.15;;
72286;SDS011;60221;45.696;16.076;2022-10-26T05:46:19;3.67;;;0.77;;
72286;SDS011;60221;45.696;16.076;2022-10-26T05:48:45;4.47;;;0.80;;
72286;SDS011;60221;45.696;16.076;2022-10-26T05:51:11;4.90;;;1.10;;
72286;SDS011;60221;45.696;16.076;2022-10-26T05:53:37;4.00;;;1.07;;
72286;SDS011;60221;45.696;16.076;2022-10-26T05:56:17;7.53;;;1.62;;
72286;SDS011;60221;45.696;16.076;2022-10-26T05:58:47;5.60;;;1.25;;
72286;SDS011;60221;45.696;16.076;2022-10-26T15:36:29;16.30;;;8.83;;
72286;SDS011;60221;45.696;16.076;2022-10-26T15:38:54;17.10;;;8.68;;
72286;SDS011;60221;45.696;16.076;2022-10-26T15:41:27;16.93;;;8.48;;
72286;SDS011;60221;45.696;16.076;2022-10-26T15:44:01;20.27;;;8.93;;
72286;SDS011;60221;45.696;16.076;2022-10-26T15:46:33;20.90;;;9.63;;
72286;SDS011;60221;45.696;16.076;2022-10-26T15:49:04;20.82;;;9.35;;
72286;SDS011;60221;45.696;16.076;2022-10-26T15:51:32;15.83;;;8.35;;
72286;SDS011;60221;45.696;16.076;2022-10-26T15:54:03;18.10;;;8.40;;
72286;SDS011;60221;45.696;16.076;2022-10-26T15:56:30;18.17;;;8.75;;
72286;SDS011;60221;45.696;16.076;2022-10-26T15:58:56;16.83;;;8.17;;
72286;SDS011;60221;45.696;16.076;2022-10-26T16:01:24;17.57;;;9.73;;
72286;SDS011;60221;45.696;16.076;2022-10-26T16:03:53;16.52;;;8.95;;
72286;SDS011;60221;45.696;16.076;2022-10-26T16:06:27;16.02;;;9.43;;
72286;SDS011;60221;45.696;16.076;2022-10-26T16:08:57;14.68;;;8.70;;
72286;SDS011;60221;45.696;16.076;2022-10-26T16:11:27;15.37;;;8.93;;
72286;SDS011;60221;45.696;16.076;2022-10-26T16:13:54;20.55;;;10.60;;
72286;SDS011;60221;45.696;16.076;2022-10-26T16:16:21;19.35;;;10.20;;
72286;SDS011;60221;45.696;16.076;2022-10-26T16:18:47;21.90;;;10.27;;
72286;SDS011;60221;45.696;16.076;2022-10-26T16:21:19;21.02;;;11.28;;
72286;SDS011;60221;45.696;16.076;2022-10-26T16:23:48;19.92;;;11.18;;
72286;SDS011;60221;45.696;16.076;2022-10-26T16:26:17;21.80;;;11.55;;
72286;SDS011;60221;45.696;16.076;2022-10-26T16:28:45;26.10;;;12.65;;
72286;SDS011;60221;45.696;16.076;2022-10-26T16:31:16;19.63;;;12.13;;
72286;SDS011;60221;45.696;16.076;2022-10-26T16:33:45;27.10;;;15.72;;
72286;SDS011;60221;45.696;16.076;2022-10-26T16:36:12;25.90;;;14.47;;
72286;SDS011;60221;45.696;16.076;2022-10-26T16:38:39;28.00;;;14.70;;
72286;SDS011;60221;45.696;16.076;2022-10-26T16:41:10;25.97;;;13.05;;
72286;SDS011;60221;45.696;16.076;2022-10-26T16:43:37;22.30;;;12.73;;
72286;SDS011;60221;45.696;16.076;2022-10-26T16:46:17;20.97;;;11.97;;
72286;SDS011;60221;45.696;16.076;2022-10-26T16:48:46;21.12;;;11.48;;
72286;SDS011;60221;45.696;16.076;2022-10-26T16:53:46;22.30;;;12.75;;
72286;SDS011;60221;45.696;16.076;2022-10-26T16:56:15;24.87;;;14.17;;
72286;SDS011;60221;45.696;16.076;2022-10-26T16:58:44;21.33;;;12.20;;
72286;SDS011;60221;45.696;16.076;2022-10-26T17:01:11;21.12;;;12.13;;
72286;SDS011;60221;45.696;16.076;2022-10-26T17:03:41;25.70;;;11.83;;
72286;SDS011;60221;45.696;16.076;2022-10-26T17:06:07;21.27;;;11.47;;
72286;SDS011;60221;45.696;16.076;2022-10-26T17:08:34;23.50;;;11.90;;
72286;SDS011;60221;45.696;16.076;2022-10-26T17:11:01;25.62;;;13.00;;
72286;SDS011;60221;45.696;16.076;2022-10-26T17:13:31;23.90;;;12.23;;
72286;SDS011;60221;45.696;16.076;2022-10-26T17:16:01;22.58;;;11.78;;
72286;SDS011;60221;45.696;16.076;2022-10-26T17:18:29;22.40;;;12.47;;
72286;SDS011;60221;45.696;16.076;2022-10-26T17:20:56;21.90;;;12.55;;
72286;SDS011;60221;45.696;16.076;2022-10-26T17:23:23;23.87;;;12.53;;
72286;SDS011;60221;45.696;16.076;2022-10-26T17:25:49;25.20;;;12.47;;
72286;SDS011;60221;45.696;16.076;2022-10-26T17:28:15;29.87;;;14.33;;
72286;SDS011;60221;45.696;16.076;2022-10-26T17:30:41;25.50;;;13.07;;
72286;SDS011;60221;45.696;16.076;2022-10-26T17:33:09;24.40;;;13.78;;
72286;SDS011;60221;45.696;16.076;2022-10-26T17:35:36;26.77;;;14.38;;
72286;SDS011;60221;45.696;16.076;2022-10-26T17:38:03;27.00;;;13.77;;
72286;SDS011;60221;45.696;16.076;2022-10-26T17:40:29;26.82;;;14.63;;
72286;SDS011;60221;45.696;16.076;2022-10-26T17:42:57;33.50;;;15.68;;
72286;SDS011;60221;45.696;16.076;2022-10-26T17:45:25;36.33;;;16.93;;
72286;SDS011;60221;45.696;16.076;2022-10-26T17:47:51;33.18;;;17.40;;
72286;SDS011;60221;45.696;16.076;2022-10-26T17:50:17;38.40;;;18.17;;
72286;SDS011;60221;45.696;16.076;2022-10-26T17:52:43;31.93;;;16.75;;
72286;SDS011;60221;45.696;16.076;2022-10-26T17:55:09;34.57;;;17.60;;
72286;SDS011;60221;45.696;16.076;2022-10-26T17:57:35;34.48;;;18.20;;
72286;SDS011;60221;45.696;16.076;2022-10-26T18:00:02;37.63;;;19.15;;
72286;SDS011;60221;45.696;16.076;2022-10-26T18:02:32;40.48;;;19.60;;
72286;SDS011;60221;45.696;16.076;2022-10-26T18:05:00;38.03;;;18.00;;
72286;SDS011;60221;45.696;16.076;2022-10-26T18:07:28;35.10;;;17.07;;
72286;SDS011;60221;45.696;16.076;2022-10-26T18:09:54;36.55;;;17.70;;
72286;SDS011;60221;45.696;16.076;2022-10-26T18:12:21;39.97;;;17.67;;
72286;SDS011;60221;45.696;16.076;2022-10-26T18:14:48;37.42;;;17.92;;
72286;SDS011;60221;45.696;16.076;2022-10-26T18:17:14;36.85;;;17.62;;
72286;SDS011;60221;45.696;16.076;2022-10-26T18:19:40;37.95;;;18.50;;
72286;SDS011;60221;45.696;16.076;2022-10-26T18:22:06;38.20;;;18.07;;
72286;SDS011;60221;45.696;16.076;2022-10-26T18:24:32;35.10;;;17.67;;
72286;SDS011;60221;45.696;16.076;2022-10-26T18:26:58;38.50;;;17.30;;
72286;SDS011;60221;45.696;16.076;2022-10-26T18:29:24;36.53;;;17.10;;
72286;SDS011;60221;45.696;16.076;2022-10-26T18:31:50;40.93;;;18.17;;
72286;SDS011;60221;45.696;16.076;2022-10-26T18:34:16;39.30;;;17.92;;
72286;SDS011;60221;45.696;16.076;2022-10-26T18:36:42;35.57;;;17.20;;
72286;SDS011;60221;45.696;16.076;2022-10-26T18:39:08;35.65;;;17.67;;
72286;SDS011;60221;45.696;16.076;2022-10-26T18:41:34;36.65;;;18.57;;
72286;SDS011;60221;45.696;16.076;2022-10-26T18:44:00;37.37;;;18.10;;
72286;SDS011;60221;45.696;16.076;2022-10-26T18:46:27;55.52;;;27.75;;
72286;SDS011;60221;45.696;16.076;2022-10-26T18:48:57;48.83;;;24.98;;
72286;SDS011;60221;45.696;16.076;2022-10-26T18:51:27;40.10;;;20.08;;
72286;SDS011;60221;45.696;16.076;2022-10-26T18:53:58;43.77;;;20.33;;
72286;SDS011;60221;45.696;16.076;2022-10-26T18:56:26;39.70;;;19.50;;
72286;SDS011;60221;45.696;16.076;2022-10-26T18:58:54;36.65;;;16.80;;
72286;SDS011;60221;45.696;16.076;2022-10-26T19:01:27;33.00;;;16.23;;
72286;SDS011;60221;45.696;16.076;2022-10-26T19:03:57;36.10;;;19.20;;
72286;SDS011;60221;45.696;16.076;2022-10-26T19:06:31;36.00;;;16.63;;
72286;SDS011;60221;45.696;16.076;2022-10-26T19:09:00;35.95;;;18.45;;
72286;SDS011;60221;45.696;16.076;2022-10-26T19:11:29;35.98;;;17.87;;
72286;SDS011;60221;45.696;16.076;2022-10-26T19:13:56;36.23;;;18.42;;
72286;SDS011;60221;45.696;16.076;2022-10-26T19:16:23;33.73;;;18.00;;
72286;SDS011;60221;45.696;16.076;2022-10-26T19:18:56;38.10;;;18.37;;
72286;SDS011;60221;45.696;16.076;2022-10-26T19:21:24;41.63;;;19.48;;
72286;SDS011;60221;45.696;16.076;2022-10-26T19:23:53;39.13;;;19.12;;
72286;SDS011;60221;45.696;16.076;2022-10-26T19:26:23;46.35;;;20.48;;
72286;SDS011;60221;45.696;16.076;2022-10-26T19:28:57;39.85;;;19.20;;
72286;SDS011;60221;45.696;16.076;2022-10-26T19:31:23;40.67;;;19.87;;
72286;SDS011;60221;45.696;16.076;2022-10-26T19:33:52;39.27;;;19.65;;
72286;SDS011;60221;45.696;16.076;2022-10-26T19:36:21;47.70;;;20.82;;
72286;SDS011;60221;45.696;16.076;2022-10-26T19:38:47;46.95;;;21.42;;
72286;SDS011;60221;45.696;16.076;2022-10-26T19:41:14;43.63;;;19.33;;
72286;SDS011;60221;45.696;16.076;2022-10-26T19:43:41;35.60;;;18.92;;
72286;SDS011;60221;45.696;16.076;2022-10-26T19:48:40;39.60;;;20.27;;
72286;SDS011;60221;45.696;16.076;2022-10-26T19:51:09;37.53;;;18.20;;
72286;SDS011;60221;45.696;16.076;2022-10-26T19:53:35;45.65;;;21.93;;
72286;SDS011;60221;45.696;16.076;2022-10-26T19:56:01;36.33;;;19.80;;
72286;SDS011;60221;45.696;16.076;2022-10-26T19:58:29;33.15;;;16.40;;
72286;SDS011;60221;45.696;16.076;2022-10-26T20:01:00;34.77;;;16.77;;
72286;SDS011;60221;45.696;16.076;2022-10-26T20:03:28;37.95;;;18.57;;
72286;SDS011;60221;45.696;16.076;2022-10-26T20:05:56;36.63;;;17.67;;
72286;SDS011;60221;45.696;16.076;2022-10-26T20:08:25;40.70;;;19.23;;
72286;SDS011;60221;45.696;16.076;2022-10-26T20:10:54;39.10;;;19.10;;
72286;SDS011;60221;45.696;16.076;2022-10-26T20:13:22;34.57;;;17.30;;
72286;SDS011;60221;45.696;16.076;2022-10-26T20:15:49;33.65;;;17.92;;
72286;SDS011;60221;45.696;16.076;2022-10-26T20:18:17;42.67;;;18.73;;
72286;SDS011;60221;45.696;16.076;2022-10-26T20:20:44;42.05;;;20.20;;
72286;SDS011;60221;45.696;16.076;2022-10-26T20:23:11;45.08;;;20.27;;
72286;SDS011;60221;45.696;16.076;2022-10-26T20:25:42;44.17;;;21.37;;
72286;SDS011;60221;45.696;16.076;2022-10-26T20:28:11;39.48;;;18.40;;
72286;SDS011;60221;45.696;16.076;2022-10-26T20:30:40;46.20;;;20.75;;
72286;SDS011;60221;45.696;16.076;2022-10-26T20:33:08;36.75;;;16.77;;
72286;SDS011;60221;45.696;16.076;2022-10-26T20:35:36;40.58;;;18.50;;
72286;SDS011;60221;45.696;16.076;2022-10-26T20:38:03;45.30;;;18.77;;
72286;SDS011;60221;45.696;16.076;2022-10-26T20:40:32;35.83;;;17.12;;
72286;SDS011;60221;45.696;16.076;2022-10-26T20:43:00;38.10;;;17.30;;
72286;SDS011;60221;45.696;16.076;2022-10-26T20:45:32;27.80;;;13.60;;
72286;SDS011;60221;45.696;16.076;2022-10-26T20:47:57;36.03;;;16.93;;
72286;SDS011;60221;45.696;16.076;2022-10-26T20:50:27;40.87;;;18.70;;
72286;SDS011;60221;45.696;16.076;2022-10-26T20:55:47;39.45;;;17.98;;
72286;SDS011;60221;45.696;16.076;2022-10-26T21:01:27;39.80;;;18.25;;
72286;SDS011;60221;45.696;16.076;2022-10-26T21:04:00;36.30;;;18.60;;
72286;SDS011;60221;45.696;16.076;2022-10-26T21:06:28;36.08;;;17.23;;
72286;SDS011;60221;45.696;16.076;2022-10-26T21:08:56;30.90;;;15.32;;
72286;SDS011;60221;45.696;16.076;2022-10-26T21:11:23;28.67;;;15.97;;
72286;SDS011;60221;45.696;16.076;2022-10-26T21:13:51;29.48;;;16.02;;
72286;SDS011;60221;45.696;16.076;2022-10-26T21:16:19;30.05;;;15.50;;
72286;SDS011;60221;45.696;16.076;2022-10-26T21:18:45;29.98;;;15.35;;
72286;SDS011;60221;45.696;16.076;2022-10-26T21:21:11;29.77;;;15.00;;
72286;SDS011;60221;45.696;16.076;2022-10-26T21:23:38;33.23;;;16.97;;
72286;SDS011;60221;45.696;16.076;2022-10-26T21:26:06;33.95;;;17.05;;
72286;SDS011;60221;45.696;16.076;2022-10-26T21:28:42;35.73;;;16.70;;
72286;SDS011;60221;45.696;16.076;2022-10-26T21:31:08;38.50;;;18.17;;
72286;SDS011;60221;45.696;16.076;2022-10-26T21:33:36;37.33;;;16.55;;
72286;SDS011;60221;45.696;16.076;2022-10-26T21:36:03;36.35;;;17.42;;
72286;SDS011;60221;45.696;16.076;2022-10-26T21:38:33;49.45;;;18.80;;
72286;SDS011;60221;45.696;16.076;2022-10-26T21:41:07;34.90;;;15.40;;
72286;SDS011;60221;45.696;16.076;2022-10-26T21:43:41;35.58;;;14.93;;
72286;SDS011;60221;45.696;16.076;2022-10-26T21:46:10;29.48;;;15.00;;
72286;SDS011;60221;45.696;16.076;2022-10-26T21:48:38;30.32;;;14.98;;
72286;SDS011;60221;45.696;16.076;2022-10-26T21:51:13;35.68;;;16.25;;
72286;SDS011;60221;45.696;16.076;2022-10-26T21:53:38;34.13;;;15.80;;
72286;SDS011;60221;45.696;16.076;2022-10-26T21:56:06;33.00;;;15.68;;
72286;SDS011;60221;45.696;16.076;2022-10-26T21:58:36;28.85;;;15.58;;
72286;SDS011;60221;45.696;16.076;2022-10-26T22:01:04;31.62;;;16.37;;
72286;SDS011;60221;45.696;16.076;2022-10-26T22:03:45;28.98;;;15.00;;
72286;SDS011;60221;45.696;16.076;2022-10-26T22:06:13;29.40;;;14.80;;
72286;SDS011;60221;45.696;16.076;2022-10-26T22:08:43;28.30;;;14.40;;
72286;SDS011;60221;45.696;16.076;2022-10-26T22:11:11;28.87;;;14.90;;
72286;SDS011;60221;45.696;16.076;2022-10-26T22:13:44;27.17;;;14.25;;
72286;SDS011;60221;45.696;16.076;2022-10-26T22:16:16;27.80;;;14.05;;
72286;SDS011;60221;45.696;16.076;2022-10-26T22:18:49;27.03;;;14.23;;
72286;SDS011;60221;45.696;16.076;2022-10-26T22:21:18;28.02;;;13.35;;
72286;SDS011;60221;45.696;16.076;2022-10-26T22:23:46;28.95;;;13.88;;
72286;SDS011;60221;45.696;16.076;2022-10-26T22:26:14;29.05;;;13.83;;
72286;SDS011;60221;45.696;16.076;2022-10-26T22:28:44;27.30;;;12.75;;
72286;SDS011;60221;45.696;16.076;2022-10-26T22:31:17;28.00;;;12.70;;
72286;SDS011;60221;45.696;16.076;2022-10-26T22:33:51;25.57;;;12.63;;
72286;SDS011;60221;45.696;16.076;2022-10-26T22:36:20;28.17;;;13.53;;
72286;SDS011;60221;45.696;16.076;2022-10-26T22:38:47;26.50;;;13.28;;
72286;SDS011;60221;45.696;16.076;2022-10-26T22:41:14;22.10;;;11.18;;
72286;SDS011;60221;45.696;16.076;2022-10-26T22:43:42;20.13;;;10.63;;
72286;SDS011;60221;45.696;16.076;2022-10-26T22:46:10;21.87;;;11.22;;
72286;SDS011;60221;45.696;16.076;2022-10-26T22:48:43;23.20;;;11.12;;
72286;SDS011;60221;45.696;16.076;2022-10-26T22:51:10;21.97;;;9.03;;
72286;SDS011;60221;45.696;16.076;2022-10-26T22:53:40;17.32;;;8.33;;
72286;SDS011;60221;45.696;16.076;2022-10-26T22:56:07;19.27;;;8.17;;
72286;SDS011;60221;45.696;16.076;2022-10-26T22:58:36;18.25;;;8.00;;
72286;SDS011;60221;45.696;16.076;2022-10-26T23:01:13;16.65;;;7.58;;
72286;SDS011;60221;45.696;16.076;2022-10-26T23:03:37;17.62;;;7.10;;
72286;SDS011;60221;45.696;16.076;2022-10-26T23:06:12;15.58;;;6.50;;
72286;SDS011;60221;45.696;16.076;2022-10-26T23:08:38;15.37;;;7.27;;
72286;SDS011;60221;45.696;16.076;2022-10-26T23:11:05;19.85;;;7.55;;
72286;SDS011;60221;45.696;16.076;2022-10-26T23:13:35;17.87;;;7.80;;
72286;SDS011;60221;45.696;16.076;2022-10-26T23:16:06;19.75;;;7.85;;
72286;SDS011;60221;45.696;16.076;2022-10-26T23:18:36;18.20;;;8.08;;
72286;SDS011;60221;45.696;16.076;2022-10-26T23:21:05;17.03;;;7.10;;
72286;SDS011;60221;45.696;16.076;2022-10-26T23:23:33;15.15;;;7.75;;
72286;SDS011;60221;45.696;16.076;2022-10-26T23:26:04;14.45;;;7.62;;
72286;SDS011;60221;45.696;16.076;2022-10-26T23:28:33;15.43;;;7.12;;
72286;SDS011;60221;45.696;16.076;2022-10-26T23:31:01;15.68;;;7.95;;
72286;SDS011;60221;45.696;16.076;2022-10-26T23:33:27;17.77;;;7.63;;
72286;SDS011;60221;45.696;16.076;2022-10-26T23:35:54;14.23;;;7.15;;
72286;SDS011;60221;45.696;16.076;2022-10-26T23:38:22;13.43;;;7.25;;
72286;SDS011;60221;45.696;16.076;2022-10-26T23:43:22;16.85;;;7.28;;
72286;SDS011;60221;45.696;16.076;2022-10-26T23:45:51;14.13;;;6.53;;
72286;SDS011;60221;45.696;16.076;2022-10-26T23:48:19;17.65;;;6.65;;
72286;SDS011;60221;45.696;16.076;2022-10-26T23:50:47;17.95;;;7.37;;
72286;SDS011;60221;45.696;16.076;2022-10-26T23:53:16;16.17;;;7.70;;
72286;SDS011;60221;45.696;16.076;2022-10-26T23:55:45;16.93;;;7.37;;
72286;SDS011;60221;45.696;16.076;2022-10-26T23:58:12;13.53;;;7.10;;
